Time;durP1;ratioP1;P1;durP2;ratioP2;P2;SDS_P1;SDS_P2;PMS_P1;PMS_P2;Temp;Humidity;BMP_temperature;BMP_pressure;BME280_temperature;BME280_humidity;BME280_pressure;Samples;Min_cycle;Max_cycle;Signal;HPM_P1;HPM_P2
2023/06/06 00:01:18;;;;;;;3.43;2.40;;;;;;;16.22;67.98;97503.94;5028793;28;20298;-72
2023/06/06 00:03:45;;;;;;;2.67;2.00;;;;;;;16.10;68.29;97509.91;5046300;28;20287;-71
2023/06/06 00:06:13;;;;;;;2.73;1.70;;;;;;;15.97;68.61;97490.69;5045933;28;20673;-71
2023/06/06 00:08:43;;;;;;;3.93;2.03;;;;;;;16.12;68.44;97508.88;5046589;28;20204;-72
2023/06/06 00:11:11;;;;;;;2.93;2.00;;;;;;;16.17;68.01;97500.78;5046339;28;20202;-73
2023/06/06 00:13:40;;;;;;;5.37;2.03;;;;;;;16.13;68.20;97505.38;5046598;28;20272;-72
2023/06/06 00:16:07;;;;;;;3.73;1.87;;;;;;;15.99;68.47;97492.25;5046857;28;20210;-72
2023/06/06 00:18:35;;;;;;;2.53;1.87;;;;;;;15.66;69.71;97499.47;5046156;28;20779;-70
2023/06/06 00:21:02;;;;;;;4.90;1.90;;;;;;;15.71;69.39;97497.44;5046386;28;20708;-72
2023/06/06 00:23:30;;;;;;;4.57;2.40;;;;;;;15.64;69.56;97490.09;5046338;28;20208;-71
2023/06/06 00:25:57;;;;;;;2.33;1.90;;;;;;;15.75;69.29;97492.88;5046336;28;20232;-73
2023/06/06 00:28:25;;;;;;;3.50;1.80;;;;;;;15.77;69.10;97485.78;5046362;28;20570;-71
2023/06/06 00:30:52;;;;;;;2.80;1.77;;;;;;;15.85;68.91;97488.78;5046131;28;20198;-75
2023/06/06 00:33:19;;;;;;;3.93;1.97;;;;;;;15.90;68.85;97492.84;5046720;28;20685;-71
2023/06/06 00:35:46;;;;;;;3.50;1.97;;;;;;;15.93;68.54;97487.41;5046015;28;20684;-70
2023/06/06 00:38:13;;;;;;;4.70;2.20;;;;;;;16.16;68.08;97493.84;5046270;28;20748;-70
2023/06/06 00:40:40;;;;;;;4.90;2.00;;;;;;;16.19;67.59;97499.75;5046214;28;20205;-72
2023/06/06 00:43:07;;;;;;;1.77;1.60;;;;;;;16.05;68.31;97491.88;5046156;28;20204;-73
2023/06/06 00:45:34;;;;;;;4.33;2.00;;;;;;;15.83;68.56;97491.50;5026619;28;20207;-74
2023/06/06 00:48:02;;;;;;;4.10;2.03;;;;;;;15.57;69.74;97486.97;5024686;28;20211;-72
2023/06/06 00:50:30;;;;;;;3.73;2.00;;;;;;;15.58;69.64;97491.25;5025390;28;20202;-72
2023/06/06 00:52:57;;;;;;;10.17;2.37;;;;;;;14.86;72.13;97488.44;5026119;28;20262;-72
2023/06/06 00:55:24;;;;;;;2.67;1.93;;;;;;;14.63;72.94;97484.47;5026525;28;20202;-71
2023/06/06 00:57:52;;;;;;;3.57;2.03;;;;;;;14.79;72.72;97489.72;5026190;28;20222;-71
2023/06/06 01:00:19;;;;;;;2.37;1.90;;;;;;;14.85;72.42;97488.53;5024962;28;20248;-71
2023/06/06 01:02:48;;;;;;;2.57;2.10;;;;;;;14.74;72.59;97475.22;5026225;28;20256;-72
2023/06/06 01:05:19;;;;;;;4.03;2.00;;;;;;;14.71;72.05;97465.84;5026052;28;20203;-72
2023/06/06 01:07:50;;;;;;;6.00;2.23;;;;;;;14.58;72.44;97463.06;5026547;28;20218;-70
2023/06/06 01:10:18;;;;;;;3.80;2.00;;;;;;;14.66;72.98;97488.69;5025882;28;20217;-73
2023/06/06 01:13:11;;;;;;;5.13;2.00;;;;;;;14.85;72.67;97484.16;5025180;28;20198;-71
2023/06/06 01:15:45;;;;;;;5.10;2.03;;;;;;;15.16;71.71;97491.09;5025212;28;20198;-70
2023/06/06 01:18:13;;;;;;;6.00;2.30;;;;;;;15.36;70.48;97486.44;5029610;28;20230;-70
2023/06/06 01:20:41;;;;;;;4.63;2.00;;;;;;;15.46;70.07;97473.69;5029950;28;20200;-70
2023/06/06 01:23:10;;;;;;;5.27;2.00;;;;;;;15.50;69.87;97477.00;5029253;28;20289;-74
2023/06/06 01:25:40;;;;;;;4.07;1.90;;;;;;;15.52;69.64;97472.53;5029845;28;20689;-71
2023/06/06 01:28:12;;;;;;;3.60;2.10;;;;;;;15.46;70.05;97471.94;5028341;28;20265;-71
2023/06/06 01:30:41;;;;;;;3.60;1.90;;;;;;;15.25;70.60;97467.09;5029406;28;20201;-71
2023/06/06 01:33:49;;;;;;;3.23;2.30;;;;;;;14.91;71.63;97477.75;5028077;28;20705;-72
2023/06/06 01:36:33;;;;;;;4.57;2.03;;;;;;;14.93;71.91;97471.53;5027503;28;20234;-70
2023/06/06 01:39:06;;;;;;;4.50;2.07;;;;;;;14.95;72.06;97469.69;5029485;28;20322;-72
2023/06/06 01:41:36;;;;;;;5.10;2.57;;;;;;;14.89;72.08;97456.13;5029360;28;20225;-72
2023/06/06 01:44:07;;;;;;;2.83;2.00;;;;;;;15.11;71.61;97453.97;5028034;28;20205;-72
2023/06/06 01:46:36;;;;;;;5.80;2.40;;;;;;;15.14;71.76;97459.88;5028358;28;20201;-70
2023/06/06 01:49:04;;;;;;;2.17;1.97;;;;;;;14.87;71.56;97418.88;5029055;28;20711;-70
2023/06/06 01:51:32;;;;;;;4.60;2.60;;;;;;;15.18;71.82;97465.75;5029413;28;20524;-70
2023/06/06 01:53:59;;;;;;;4.27;2.00;;;;;;;14.99;70.95;97439.88;5029189;28;20342;-73
2023/06/06 01:56:27;;;;;;;3.27;2.07;;;;;;;15.16;70.66;97445.00;5029513;28;20209;-71
2023/06/06 01:58:55;;;;;;;4.50;2.30;;;;;;;15.12;70.72;97464.34;5044472;28;20226;-72
2023/06/06 02:01:22;;;;;;;4.17;2.17;;;;;;;14.96;71.25;97465.31;5044068;28;20289;-72
2023/06/06 02:03:49;;;;;;;3.23;2.00;;;;;;;14.61;72.15;97468.09;5029245;28;20256;-70
2023/06/06 02:06:18;;;;;;;3.50;2.20;;;;;;;14.50;72.64;97460.03;5036581;28;20209;-73
2023/06/06 02:08:47;;;;;;;3.60;2.47;;;;;;;14.31;73.61;97450.69;5047735;28;20700;-71
2023/06/06 02:11:14;;;;;;;3.73;2.20;;;;;;;14.38;73.91;97473.72;5047193;28;20196;-72
2023/06/06 02:13:41;;;;;;;3.33;2.80;;;;;;;14.39;73.50;97470.19;5048664;28;20198;-71
2023/06/06 02:16:09;;;;;;;3.67;2.20;;;;;;;14.20;73.68;97469.44;5047168;28;20673;-72
2023/06/06 02:18:36;;;;;;;3.27;2.40;;;;;;;13.84;76.10;97471.41;5047047;28;20225;-73
2023/06/06 02:21:23;;;;;;;2.87;1.90;;;;;;;13.94;75.76;97476.94;5047586;28;20213;-70
2023/06/06 02:23:50;;;;;;;3.80;2.63;;;;;;;13.95;75.27;97471.66;5048176;28;20669;-70
2023/06/06 02:26:17;;;;;;;5.50;2.53;;;;;;;13.49;76.72;97457.59;5048441;28;20221;-71
2023/06/06 02:28:44;;;;;;;3.77;2.40;;;;;;;13.46;77.33;97472.50;5047382;28;20291;-71
2023/06/06 02:31:14;;;;;;;3.40;2.50;;;;;;;13.45;77.88;97473.44;5046868;28;20223;-72
2023/06/06 02:33:41;;;;;;;5.00;2.90;;;;;;;13.50;77.65;97471.41;5047044;28;20217;-72
2023/06/06 02:36:08;;;;;;;5.00;2.63;;;;;;;13.52;78.15;97477.38;5048046;28;20201;-72
2023/06/06 02:38:35;;;;;;;2.33;2.10;;;;;;;13.50;78.07;97476.63;5047077;28;20226;-72
2023/06/06 02:41:03;;;;;;;4.63;3.03;;;;;;;13.55;77.38;97479.84;5046616;28;20204;-75
2023/06/06 02:43:30;;;;;;;8.27;2.87;;;;;;;13.76;76.82;97489.16;5048316;28;20232;-72
2023/06/06 02:45:57;;;;;;;5.10;2.73;;;;;;;13.80;76.77;97488.09;5047885;28;20291;-75
2023/06/06 02:48:24;;;;;;;7.47;3.07;;;;;;;13.99;76.24;97486.22;5046704;28;20189;-75
2023/06/06 02:50:51;;;;;;;6.03;2.73;;;;;;;14.18;75.19;97493.94;5046691;28;20282;-72
2023/06/06 02:53:19;;;;;;;4.73;3.03;;;;;;;13.96;75.65;97496.78;5046397;28;20255;-75
2023/06/06 02:55:46;;;;;;;5.53;2.73;;;;;;;13.64;76.56;97489.81;5046691;28;20603;-70
2023/06/06 02:58:27;;;;;;;7.07;2.60;;;;;;;13.49;77.97;97494.00;5047529;28;20700;-70
2023/06/06 03:00:56;;;;;;;4.50;2.40;;;;;;;13.75;76.33;97482.25;5046646;28;20202;-74
2023/06/06 03:03:24;;;;;;;4.47;2.53;;;;;;;13.81;76.96;97497.56;5046378;28;20201;-76
2023/06/06 03:05:54;;;;;;;5.10;2.77;;;;;;;13.86;76.55;97487.78;5046486;28;20228;-76
2023/06/06 03:08:22;;;;;;;6.67;2.70;;;;;;;13.59;76.85;97492.63;5046195;28;20603;-76
2023/06/06 03:10:51;;;;;;;4.90;2.87;;;;;;;13.71;77.28;97494.59;5047590;28;20210;-72
2023/06/06 03:13:19;;;;;;;5.00;2.93;;;;;;;14.02;75.83;97491.25;5046431;28;20208;-71
2023/06/06 03:15:46;;;;;;;6.13;2.63;;;;;;;13.98;75.97;97489.75;5036290;28;20213;-70
2023/06/06 03:18:17;;;;;;;3.80;2.70;;;;;;;14.34;74.64;97495.63;5042235;28;20350;-70
2023/06/06 03:20:51;;;;;;;5.77;2.80;;;;;;;14.29;74.79;97497.66;5026088;28;20727;-70
2023/06/06 03:23:19;;;;;;;5.67;2.90;;;;;;;14.36;74.86;97496.41;5025984;28;20198;-73
2023/06/06 03:25:51;;;;;;;7.03;3.60;;;;;;;14.41;74.84;97485.72;5026276;28;20209;-71
2023/06/06 03:28:20;;;;;;;6.70;3.60;;;;;;;14.56;73.97;97493.59;5025892;28;20203;-73
2023/06/06 03:30:50;;;;;;;4.03;2.83;;;;;;;14.47;74.67;97485.41;5026632;28;20202;-71
2023/06/06 03:33:17;;;;;;;7.20;3.03;;;;;;;14.78;73.57;97487.16;5024687;28;20492;-72
2023/06/06 03:35:44;;;;;;;5.90;2.70;;;;;;;14.39;74.22;97484.97;5014217;28;20210;-71
2023/06/06 03:38:13;;;;;;;3.30;2.30;;;;;;;14.34;74.47;97492.22;5022513;28;20234;-72
2023/06/06 03:40:42;;;;;;;6.43;2.40;;;;;;;14.33;75.20;97478.34;5017372;28;20206;-71
2023/06/06 03:43:09;;;;;;;4.27;2.60;;;;;;;14.40;75.62;97482.31;5007337;28;20211;-70
2023/06/06 03:45:38;;;;;;;3.80;2.77;;;;;;;14.38;75.67;97484.16;5005803;28;20286;-71
2023/06/06 03:48:09;;;;;;;3.93;2.73;;;;;;;14.76;74.22;97483.81;5006279;28;20638;-77
2023/06/06 03:50:39;;;;;;;5.00;2.70;;;;;;;15.45;72.43;97491.16;4990051;28;20197;-72
2023/06/06 03:53:08;;;;;;;6.90;2.80;;;;;;;16.45;68.82;97497.31;5005893;28;20198;-72
2023/06/06 03:55:38;;;;;;;6.30;2.43;;;;;;;16.73;66.12;97494.69;5005871;28;20696;-70
2023/06/06 03:58:05;;;;;;;5.57;2.90;;;;;;;17.23;65.18;97494.91;5008386;28;20299;-71
2023/06/06 04:00:32;;;;;;;3.83;2.37;;;;;;;17.30;64.19;97493.59;5019813;28;20787;-72
2023/06/06 04:03:00;;;;;;;2.97;2.50;;;;;;;16.66;66.17;97498.63;5015827;28;20203;-72
2023/06/06 04:05:27;;;;;;;3.77;2.87;;;;;;;16.95;65.75;97489.78;5014807;28;20274;-69
2023/06/06 04:07:56;;;;;;;4.10;2.50;;;;;;;16.81;66.01;97481.97;5015761;28;20199;-70
2023/06/06 04:10:23;;;;;;;3.73;2.57;;;;;;;16.97;65.60;97498.38;5014887;28;20193;-69
2023/06/06 04:12:51;;;;;;;5.93;3.00;;;;;;;17.32;64.73;97494.31;5013832;28;20275;-71
2023/06/06 04:15:19;;;;;;;6.90;2.40;;;;;;;17.49;64.14;97494.09;5015287;28;20293;-70
2023/06/06 04:17:47;;;;;;;4.00;2.50;;;;;;;17.14;65.44;97500.75;5015933;28;20688;-70
2023/06/06 04:20:15;;;;;;;6.97;2.87;;;;;;;16.92;65.77;97503.88;5014984;28;20249;-71
2023/06/06 04:22:45;;;;;;;4.63;2.33;;;;;;;17.74;63.65;97512.44;5018227;28;20290;-73
2023/06/06 04:25:15;;;;;;;4.47;2.80;;;;;;;18.09;61.96;97504.00;5024903;28;20282;-73
2023/06/06 04:27:45;;;;;;;4.73;2.30;;;;;;;18.22;62.49;97505.69;5025330;28;20557;-73
2023/06/06 04:30:22;;;;;;;6.60;2.67;;;;;;;17.65;63.71;97505.22;5026234;28;20262;-72
2023/06/06 04:32:53;;;;;;;3.67;2.50;;;;;;;17.45;64.85;97503.06;5024911;28;20224;-71
2023/06/06 04:35:21;;;;;;;5.93;2.73;;;;;;;18.21;63.71;97505.78;5025127;28;20283;-72
2023/06/06 04:37:53;;;;;;;3.90;2.43;;;;;;;18.37;62.07;97512.50;5024654;28;20236;-72
2023/06/06 04:40:25;;;;;;;3.57;2.00;;;;;;;18.69;62.50;97508.47;5025176;28;20228;-72
2023/06/06 04:42:57;;;;;;;8.30;2.57;;;;;;;18.98;61.13;97513.47;5025870;28;20619;-71
2023/06/06 04:45:24;;;;;;;9.40;3.33;;;;;;;19.12;60.50;97515.94;5024829;28;20212;-71
2023/06/06 04:47:55;;;;;;;5.73;2.60;;;;;;;18.93;60.37;97499.81;5024566;28;20205;-70
2023/06/06 04:50:23;;;;;;;8.03;3.23;;;;;;;19.41;59.89;97523.38;5008036;28;20232;-71
2023/06/06 04:52:50;;;;;;;5.03;2.50;;;;;;;18.98;60.49;97503.78;5028554;28;20212;-72
2023/06/06 04:55:18;;;;;;;4.77;2.30;;;;;;;19.16;60.32;97531.34;5029418;28;20696;-74
2023/06/06 04:57:46;;;;;;;7.23;2.90;;;;;;;19.34;60.01;97526.56;5030300;28;20625;-73
2023/06/06 05:00:14;;;;;;;3.50;3.20;;;;;;;19.67;59.95;97531.97;5029580;28;20245;-72
2023/06/06 05:02:42;;;;;;;4.07;2.77;;;;;;;20.02;58.61;97534.59;5029621;28;20203;-72
2023/06/06 05:05:09;;;;;;;6.43;2.40;;;;;;;19.82;58.70;97527.38;5029641;28;20638;-72
2023/06/06 05:07:38;;;;;;;4.27;2.50;;;;;;;19.95;58.83;97534.22;5029713;28;20280;-71
2023/06/06 05:10:05;;;;;;;5.00;2.50;;;;;;;19.58;59.32;97526.59;5029669;28;20213;-74
2023/06/06 05:12:33;;;;;;;4.67;2.43;;;;;;;19.66;59.24;97526.84;5028955;28;20264;-75
2023/06/06 05:15:00;;;;;;;6.60;2.40;;;;;;;19.80;59.58;97524.03;5029655;28;20211;-72
2023/06/06 05:17:32;;;;;;;8.07;3.70;;;;;;;19.75;58.35;97527.00;5029447;28;20297;-75
2023/06/06 05:19:59;;;;;;;3.67;2.60;;;;;;;19.75;59.37;97534.88;5029110;28;20595;-74
2023/06/06 05:22:26;;;;;;;3.97;2.43;;;;;;;20.13;57.74;97542.53;5038051;28;20220;-70
2023/06/06 05:24:53;;;;;;;7.53;3.10;;;;;;;20.43;56.81;97540.19;5031401;28;20662;-74
2023/06/06 05:27:20;;;;;;;4.27;2.23;;;;;;;20.37;56.67;97534.56;5026492;28;20202;-73
2023/06/06 05:29:47;;;;;;;5.20;2.77;;;;;;;20.39;54.97;97540.53;5015667;28;20206;-71
2023/06/06 05:32:14;;;;;;;4.10;2.07;;;;;;;20.66;53.29;97538.41;5027758;28;20259;-74
2023/06/06 05:34:42;;;;;;;5.33;2.40;;;;;;;20.67;55.07;97538.28;5028817;28;20253;-73
2023/06/06 05:37:09;;;;;;;5.73;2.20;;;;;;;20.74;54.91;97538.66;5028697;28;20238;-74
2023/06/06 05:39:36;;;;;;;3.70;2.33;;;;;;;21.04;54.28;97516.03;5029001;28;20222;-73
2023/06/06 05:42:03;;;;;;;6.90;2.10;;;;;;;20.96;55.02;97528.94;5027050;28;20651;-74
2023/06/06 05:44:30;;;;;;;6.10;2.73;;;;;;;21.15;53.81;97536.22;5028787;28;20198;-72
2023/06/06 05:46:58;;;;;;;4.83;2.30;;;;;;;21.15;53.70;97527.50;5028244;28;20206;-71
2023/06/06 05:49:25;;;;;;;8.40;2.60;;;;;;;21.11;53.95;97526.06;5028913;28;20634;-74
2023/06/06 05:51:52;;;;;;;3.97;2.60;;;;;;;21.01;53.78;97518.88;5027986;28;20655;-75
2023/06/06 05:54:19;;;;;;;6.93;2.70;;;;;;;21.11;54.06;97516.38;5044133;28;20199;-72
2023/06/06 05:56:46;;;;;;;6.13;2.73;;;;;;;20.85;54.52;97536.03;5048357;28;20225;-72
2023/06/06 05:59:13;;;;;;;5.00;2.60;;;;;;;20.20;55.60;97534.06;5048110;28;20228;-73
2023/06/06 06:01:42;;;;;;;3.70;2.20;;;;;;;20.35;56.61;97528.59;5047982;28;20229;-72
2023/06/06 06:04:10;;;;;;;5.90;3.20;;;;;;;20.66;55.93;97536.63;5046460;28;20197;-72
2023/06/06 06:06:38;;;;;;;8.33;3.03;;;;;;;20.62;55.77;97527.28;5047220;28;20583;-77
2023/06/06 06:09:06;;;;;;;5.70;2.47;;;;;;;20.85;55.04;97536.88;5047695;28;20185;-77
2023/06/06 06:11:33;;;;;;;6.83;2.77;;;;;;;20.83;55.09;97532.66;5048387;28;20225;-76
2023/06/06 06:14:00;;;;;;;6.53;2.43;;;;;;;20.64;55.55;97537.69;5047559;28;20199;-75
2023/06/06 06:16:27;;;;;;;4.67;2.90;;;;;;;21.08;55.48;97528.97;5047384;28;20665;-74
2023/06/06 06:18:55;;;;;;;3.77;3.20;;;;;;;21.41;53.88;97542.88;5047700;28;20950;-76
2023/06/06 06:21:24;;;;;;;12.77;3.47;;;;;;;21.81;52.94;97540.44;5047663;28;20199;-73
2023/06/06 06:23:51;;;;;;;5.83;2.97;;;;;;;21.28;53.69;97534.28;5047766;28;20191;-73
2023/06/06 06:26:20;;;;;;;4.97;2.30;;;;;;;21.21;53.17;97521.72;5047429;28;20213;-76
2023/06/06 06:28:50;;;;;;;4.43;2.33;;;;;;;21.32;53.55;97524.34;5048101;28;20669;-73
2023/06/06 06:31:17;;;;;;;6.13;2.50;;;;;;;20.86;54.10;97543.78;5047391;28;20192;-71
2023/06/06 06:33:47;;;;;;;5.23;2.00;;;;;;;20.87;54.24;97540.22;5047242;28;20206;-72
2023/06/06 06:36:14;;;;;;;3.60;2.20;;;;;;;21.06;54.63;97529.91;5043007;28;20231;-71
2023/06/06 06:38:42;;;;;;;3.63;1.63;;;;;;;21.24;53.77;97527.59;5025821;28;20214;-72
2023/06/06 06:41:09;;;;;;;7.20;2.53;;;;;;;21.41;53.87;97534.16;5026304;28;20237;-74
2023/06/06 06:43:36;;;;;;;5.07;3.17;;;;;;;21.06;54.78;97527.25;5026591;28;20225;-72
2023/06/06 06:46:12;;;;;;;8.80;3.97;;;;;;;20.46;55.71;97541.75;5025589;28;20302;-70
2023/06/06 06:48:39;;;;;;;5.43;3.20;;;;;;;20.18;56.81;97499.13;5026557;28;20202;-71
2023/06/06 06:51:07;;;;;;;4.13;2.03;;;;;;;20.63;55.87;97536.84;5026945;28;20773;-72
2023/06/06 06:53:37;;;;;;;3.27;2.03;;;;;;;20.50;56.04;97530.03;5026576;28;20558;-72
2023/06/06 06:56:05;;;;;;;3.37;2.00;;;;;;;20.11;57.07;97534.72;5013813;28;20230;-72
2023/06/06 06:58:35;;;;;;;8.33;2.60;;;;;;;20.60;56.74;97536.25;5007981;28;20635;-69
2023/06/06 07:01:03;;;;;;;7.23;2.50;;;;;;;21.26;55.10;97535.38;5007343;28;20242;-70
2023/06/06 07:04:10;;;;;;;2.90;2.17;;;;;;;21.48;54.54;97541.41;5017263;28;20191;-71
2023/06/06 07:07:31;;;;;;;6.10;4.23;;;;;;;20.96;55.29;97539.47;5030044;28;20230;-71
2023/06/06 07:10:49;;;;;;;4.50;2.50;;;;;;;20.84;55.88;97544.84;5022311;28;20220;-71
2023/06/06 07:13:18;;;;;;;5.20;2.53;;;;;;;20.83;56.12;97538.78;5046058;28;20197;-70
2023/06/06 07:16:25;;;;;;;7.83;4.03;;;;;;;20.89;55.98;97529.53;5016252;28;20202;-70
2023/06/06 07:19:46;;;;;;;6.10;2.10;;;;;;;21.53;54.65;97548.97;5029084;28;20202;-70
2023/06/06 07:23:09;;;;;;;5.90;2.47;;;;;;;21.49;54.62;97535.19;5045607;28;20199;-69
2023/06/06 07:25:51;;;;;;;6.03;3.00;;;;;;;21.23;55.14;97540.88;5036478;28;20278;-71
2023/06/06 07:28:19;;;;;;;3.67;2.10;;;;;;;20.88;53.98;97539.25;5025954;28;20209;-70
2023/06/06 07:30:46;;;;;;;6.07;2.80;;;;;;;20.87;56.15;97508.63;5024329;28;20195;-72
2023/06/06 07:33:13;;;;;;;5.73;2.77;;;;;;;21.24;55.88;97532.88;5026458;28;20785;-73
2023/06/06 07:35:40;;;;;;;4.53;2.30;;;;;;;21.42;54.25;97522.63;5034912;28;20190;-75
2023/06/06 07:38:08;;;;;;;5.27;2.37;;;;;;;22.01;52.65;97533.56;5026722;28;20244;-72
2023/06/06 07:40:35;;;;;;;7.37;3.27;;;;;;;21.48;51.66;97472.06;5025784;28;20231;-73
2023/06/06 07:43:03;;;;;;;5.87;2.50;;;;;;;21.96;51.68;97531.31;5025843;28;20243;-71
2023/06/06 07:45:31;;;;;;;8.07;2.50;;;;;;;21.90;52.32;97516.00;5024793;28;20202;-74
2023/06/06 07:47:58;;;;;;;2.83;1.93;;;;;;;21.68;52.39;97505.50;5023927;28;20201;-71
2023/06/06 07:51:06;;;;;;;5.73;2.17;;;;;;;22.21;51.65;97523.00;5023726;28;20263;-72
2023/06/06 07:53:47;;;;;;;5.13;2.90;;;;;;;21.86;51.12;97527.75;5037827;28;20335;-74
2023/06/06 07:56:18;;;;;;;6.27;2.20;;;;;;;22.08;51.27;97498.59;5025921;28;20250;-71
2023/06/06 07:58:51;;;;;;;3.83;2.10;;;;;;;22.53;49.81;97515.81;5021529;28;20671;-74
2023/06/06 08:01:20;;;;;;;3.00;2.43;;;;;;;21.97;50.55;97480.22;5005905;28;20220;-73
2023/06/06 08:03:54;;;;;;;4.10;3.03;;;;;;;22.44;50.72;97521.84;5005226;28;20260;-74
2023/06/06 08:06:23;;;;;;;2.37;1.83;;;;;;;22.15;49.47;97499.78;5004403;28;20259;-75
2023/06/06 08:08:51;;;;;;;3.17;1.73;;;;;;;22.29;48.64;97507.34;5023245;28;20200;-73
2023/06/06 08:11:19;;;;;;;3.90;2.03;;;;;;;22.25;49.24;97461.09;5044988;28;20194;-73
2023/06/06 08:13:46;;;;;;;5.63;2.90;;;;;;;22.67;48.84;97502.25;5045574;28;20205;-72
2023/06/06 08:16:14;;;;;;;4.77;2.20;;;;;;;22.76;49.23;97505.91;5043836;28;20262;-71
2023/06/06 08:18:41;;;;;;;4.60;2.37;;;;;;;22.89;47.12;97505.69;5044983;28;20220;-72
2023/06/06 08:21:08;;;;;;;4.40;2.13;;;;;;;22.89;47.78;97508.31;5044831;28;20227;-73
2023/06/06 08:23:36;;;;;;;7.03;2.00;;;;;;;23.30;46.87;97506.34;5044539;28;20245;-71
2023/06/06 08:26:03;;;;;;;5.07;2.00;;;;;;;23.34;47.25;97504.28;5046985;28;20208;-71
2023/06/06 08:28:30;;;;;;;3.83;2.73;;;;;;;23.31;46.42;97512.44;5048288;28;20189;-71
2023/06/06 08:30:57;;;;;;;3.10;2.40;;;;;;;23.30;46.28;97493.13;5049444;28;20601;-71
2023/06/06 08:33:25;;;;;;;3.37;2.20;;;;;;;23.35;46.19;97513.88;5049322;28;20201;-72
2023/06/06 08:35:52;;;;;;;5.43;2.37;;;;;;;23.30;45.13;97513.44;5048253;28;20198;-71
2023/06/06 08:38:21;;;;;;;2.97;1.93;;;;;;;23.06;46.35;97513.78;5049447;28;20221;-71
2023/06/06 08:41:28;;;;;;;6.50;2.40;;;;;;;23.17;46.28;97504.91;5047558;28;20717;-70
2023/06/06 08:44:50;;;;;;;3.13;2.20;;;;;;;23.32;45.95;97512.34;5034939;28;20204;-70
2023/06/06 08:47:18;;;;;;;3.80;2.17;;;;;;;23.20;45.33;97507.28;5049188;28;20206;-71
2023/06/06 08:49:46;;;;;;;2.90;1.70;;;;;;;23.46;45.04;97489.94;5045010;28;20719;-70
2023/06/06 08:52:13;;;;;;;3.73;2.40;;;;;;;23.25;46.03;97495.31;5037844;28;20259;-70
2023/06/06 08:54:42;;;;;;;3.50;2.00;;;;;;;23.36;45.56;97510.25;5029349;28;20207;-72
2023/06/06 08:57:09;;;;;;;5.30;2.60;;;;;;;22.78;45.84;97508.41;5029310;28;20221;-73
2023/06/06 08:59:40;;;;;;;3.67;1.73;;;;;;;22.56;45.65;97490.94;5027688;28;20197;-72
2023/06/06 09:02:08;;;;;;;4.13;2.13;;;;;;;22.52;45.75;97495.63;5027264;28;20682;-69
2023/06/06 09:04:35;;;;;;;3.17;1.97;;;;;;;22.61;46.46;97491.41;5029618;28;20232;-71
2023/06/06 09:07:08;;;;;;;3.60;2.40;;;;;;;22.63;46.34;97494.75;5027336;28;20208;-72
2023/06/06 09:09:37;;;;;;;3.33;2.03;;;;;;;22.50;45.97;97484.38;5029208;28;20575;-71
2023/06/06 09:12:07;;;;;;;5.07;2.03;;;;;;;22.61;45.52;97489.59;5028737;28;20229;-70
2023/06/06 09:14:34;;;;;;;5.10;2.30;;;;;;;22.54;45.26;97496.38;5028285;28;20311;-71
2023/06/06 09:17:02;;;;;;;4.47;2.17;;;;;;;22.64;44.05;97485.88;5015033;28;20222;-72
2023/06/06 09:19:31;;;;;;;3.37;2.33;;;;;;;22.73;41.74;97489.50;5008424;28;20194;-69
2023/06/06 09:21:59;;;;;;;2.77;2.27;;;;;;;22.78;41.36;97471.44;5009175;28;20661;-71
2023/06/06 09:24:28;;;;;;;3.60;2.00;;;;;;;22.96;38.58;97472.44;5007441;28;20261;-71
2023/06/06 09:26:55;;;;;;;6.77;2.17;;;;;;;23.30;38.60;97484.34;5008850;28;20219;-73
2023/06/06 09:29:25;;;;;;;3.90;1.80;;;;;;;23.40;38.65;97464.06;5008389;28;20645;-71
2023/06/06 09:31:52;;;;;;;3.60;2.13;;;;;;;23.66;39.13;97478.41;5008820;28;20201;-72
2023/06/06 09:34:24;;;;;;;4.40;2.50;;;;;;;23.59;38.28;97492.31;5007319;28;20644;-71
2023/06/06 09:36:52;;;;;;;2.73;1.53;;;;;;;23.58;36.92;97482.69;5007718;28;20298;-70
2023/06/06 09:39:19;;;;;;;3.87;1.70;;;;;;;23.54;34.46;97482.16;5008977;28;20263;-73
2023/06/06 09:41:48;;;;;;;3.70;2.20;;;;;;;23.70;36.37;97481.63;5006893;28;20327;-71
2023/06/06 09:44:20;;;;;;;5.50;2.13;;;;;;;23.36;38.42;97481.19;5008768;28;20196;-71
2023/06/06 09:47:02;;;;;;;5.90;2.80;;;;;;;23.80;37.14;97480.59;5008034;28;20214;-73
2023/06/06 09:49:36;;;;;;;2.63;2.00;;;;;;;23.24;37.98;97459.31;5008287;28;20611;-73
2023/06/06 09:52:05;;;;;;;4.53;2.27;;;;;;;23.35;38.93;97482.97;5036727;28;20621;-75
2023/06/06 09:54:33;;;;;;;6.10;2.50;;;;;;;23.86;38.03;97480.06;5026772;28;20194;-71
2023/06/06 09:57:13;;;;;;;7.77;2.50;;;;;;;24.14;37.42;97478.34;5028474;28;20199;-72
2023/06/06 09:59:44;;;;;;;3.17;2.20;;;;;;;24.08;36.11;97466.53;5026420;28;20666;-71
2023/06/06 10:02:15;;;;;;;4.30;1.83;;;;;;;23.91;34.17;97464.59;5027853;28;20200;-70
2023/06/06 10:04:44;;;;;;;3.40;2.00;;;;;;;23.77;34.48;97472.13;5028230;28;20763;-72
2023/06/06 10:07:12;;;;;;;2.97;2.03;;;;;;;23.87;34.27;97462.34;5027736;28;20197;-70
2023/06/06 10:09:40;;;;;;;4.73;2.50;;;;;;;23.86;33.25;97444.84;5028088;28;20588;-73
2023/06/06 10:12:09;;;;;;;2.97;2.07;;;;;;;24.23;30.47;97458.97;5027717;28;20204;-71
2023/06/06 10:14:36;;;;;;;3.53;2.17;;;;;;;23.82;31.18;97449.56;5028574;28;20201;-73
2023/06/06 10:17:06;;;;;;;2.47;2.00;;;;;;;23.09;28.84;97454.53;5027314;28;20259;-71
2023/06/06 10:19:34;;;;;;;2.73;1.87;;;;;;;23.27;28.84;97442.31;5028145;28;20597;-74
2023/06/06 10:22:01;;;;;;;3.43;1.97;;;;;;;23.23;27.70;97443.56;5027814;28;20227;-71
2023/06/06 10:24:29;;;;;;;2.97;2.03;;;;;;;23.48;26.67;97445.69;5027335;28;20195;-75
2023/06/06 10:27:12;;;;;;;4.17;2.20;;;;;;;24.06;28.68;97441.19;5028248;28;20707;-74
2023/06/06 10:30:06;;;;;;;4.27;2.10;;;;;;;24.63;30.92;97430.38;5027233;28;20192;-71
2023/06/06 10:32:48;;;;;;;4.27;2.00;;;;;;;24.81;30.91;97441.06;5027416;28;20197;-73
2023/06/06 10:35:16;;;;;;;3.40;2.17;;;;;;;24.66;31.16;97423.94;5027529;28;20196;-71
2023/06/06 10:38:09;;;;;;;5.03;2.20;;;;;;;24.07;31.50;97424.34;5026923;28;20267;-70
2023/06/06 10:40:42;;;;;;;4.43;2.57;;;;;;;23.74;32.63;97412.41;5027078;28;20233;-72
2023/06/06 10:43:10;;;;;;;3.40;2.03;;;;;;;23.66;31.09;97417.56;5027348;28;20290;-71
2023/06/06 10:45:58;;;;;;;2.83;2.33;;;;;;;23.98;31.06;97404.84;5027482;28;20193;-72
2023/06/06 10:48:45;;;;;;;3.37;2.20;;;;;;;23.91;36.96;97421.41;5026661;28;20253;-72
2023/06/06 10:51:39;;;;;;;3.37;2.10;;;;;;;24.38;37.27;97415.16;5027036;28;20249;-71
2023/06/06 10:54:26;;;;;;;6.40;3.20;;;;;;;24.89;37.78;97409.34;5006398;28;20198;-72
2023/06/06 10:56:55;;;;;;;5.70;2.63;;;;;;;24.79;38.44;97403.28;5027294;28;20226;-71
2023/06/06 10:59:27;;;;;;;4.70;2.70;;;;;;;24.87;36.00;97413.97;5025630;28;20719;-71
2023/06/06 11:01:55;;;;;;;3.53;2.87;;;;;;;24.63;35.11;97387.97;5026228;28;20241;-70
2023/06/06 11:04:24;;;;;;;5.50;2.63;;;;;;;24.82;35.95;97397.66;5026744;28;20213;-71
2023/06/06 11:06:53;;;;;;;5.00;2.10;;;;;;;24.89;36.66;97394.25;5026545;28;20642;-71
2023/06/06 11:09:22;;;;;;;2.60;2.10;;;;;;;24.95;37.20;97387.53;5026617;28;20254;-71
2023/06/06 11:12:10;;;;;;;5.83;3.43;;;;;;;25.02;38.00;97381.47;5026134;28;20205;-71
2023/06/06 11:15:02;;;;;;;5.03;2.53;;;;;;;25.12;40.22;97389.38;5027226;28;20578;-71
2023/06/06 11:17:43;;;;;;;6.03;2.63;;;;;;;24.44;40.22;97340.41;5026750;28;20185;-73
2023/06/06 11:20:18;;;;;;;5.50;2.53;;;;;;;24.81;38.86;97388.06;5026866;28;20213;-72
2023/06/06 11:23:02;;;;;;;7.50;3.60;;;;;;;24.55;40.75;97384.41;5027314;28;20236;-72
2023/06/06 11:25:30;;;;;;;3.43;2.60;;;;;;;24.76;39.79;97385.00;5026494;28;20366;-70
2023/06/06 11:27:58;;;;;;;7.30;3.70;;;;;;;25.14;38.87;97387.41;5028063;28;20188;-74
2023/06/06 11:30:30;;;;;;;4.90;3.53;;;;;;;25.48;37.86;97383.09;5025646;28;20193;-72
2023/06/06 11:32:58;;;;;;;5.07;2.80;;;;;;;25.80;36.01;97383.31;5031675;28;20221;-71
2023/06/06 11:35:32;;;;;;;4.90;3.73;;;;;;;25.84;38.35;97375.88;5046580;28;20215;-72
2023/06/06 11:37:59;;;;;;;8.13;3.23;;;;;;;25.55;39.18;97381.50;5028145;28;20233;-73
2023/06/06 11:40:30;;;;;;;4.33;2.87;;;;;;;25.67;38.89;97374.94;5026039;28;20236;-70
2023/06/06 11:42:58;;;;;;;3.70;2.57;;;;;;;25.57;39.52;97363.59;5026494;28;20198;-75
2023/06/06 11:45:27;;;;;;;3.10;2.80;;;;;;;24.96;40.12;97373.28;5029158;28;20205;-72
2023/06/06 11:47:54;;;;;;;5.13;2.97;;;;;;;25.02;40.98;97376.19;5046436;28;20197;-72
2023/06/06 11:50:40;;;;;;;2.77;2.40;;;;;;;24.25;41.64;97370.47;5045940;28;20188;-69
2023/06/06 11:53:07;;;;;;;3.03;2.57;;;;;;;24.38;40.92;97371.97;5046283;28;20215;-69